createdAt,value
2022-08-09T00:00:18.798Z,23.09
2022-08-09T00:02:49.934Z,23.09
2022-08-09T00:06:17.389Z,23.09
2022-08-09T00:08:09.677Z,23.09
2022-08-09T00:10:36.290Z,23.10
2022-08-09T00:13:05.803Z,23.09
2022-08-09T00:15:59.541Z,23.09
2022-08-09T00:18:31.284Z,23.09
2022-08-09T00:21:03.405Z,23.09
2022-08-09T00:23:55.289Z,23.09
2022-08-09T00:26:15.345Z,23.08
2022-08-09T00:28:41.269Z,23.09
2022-08-09T00:31:30.675Z,23.09
2022-08-09T00:33:53.910Z,23.09
2022-08-09T00:36:19.943Z,23.09
2022-08-09T00:38:46.023Z,23.09
2022-08-09T00:41:12.618Z,23.09
2022-08-09T00:44:15.136Z,23.09
2022-08-09T00:46:57.531Z,23.09
2022-08-09T00:49:30.373Z,23.09
2022-08-09T00:51:57.929Z,23.08
2022-08-09T00:54:31.502Z,23.09
2022-08-09T00:57:01.841Z,23.08
2022-08-09T00:59:41.629Z,23.09
2022-08-09T01:02:20.253Z,23.09
2022-08-09T01:07:37.730Z,23.08
2022-08-09T01:10:28.917Z,23.08
2022-08-09T01:13:00.261Z,23.09
2022-08-09T01:15:28.707Z,23.09
2022-08-09T01:18:17.533Z,23.09
2022-08-09T01:21:44.582Z,23.09
2022-08-09T01:24:25.871Z,23.09
2022-08-09T01:26:55.678Z,23.09
2022-08-09T01:29:28.110Z,23.09
2022-08-09T01:32:31.603Z,23.09
2022-08-09T01:34:42.631Z,23.09
2022-08-09T01:37:09.749Z,23.09
2022-08-09T01:39:39.756Z,23.09
2022-08-09T01:42:11.106Z,23.10
2022-08-09T01:44:37.841Z,23.09
2022-08-09T01:47:04.269Z,23.09
2022-08-09T01:49:39.189Z,23.08
2022-08-09T01:52:09.317Z,23.09
2022-08-09T01:54:39.220Z,23.09
2022-08-09T01:57:09.011Z,23.08
2022-08-09T01:59:50.959Z,23.09
2022-08-09T02:02:20.091Z,23.08
2022-08-09T02:04:47.929Z,23.08
2022-08-09T02:08:34.847Z,23.09
2022-08-09T02:10:08.776Z,23.09
2022-08-09T02:12:36.847Z,23.08
2022-08-09T02:15:07.843Z,23.09
2022-08-09T02:18:00.451Z,23.09
2022-08-09T02:20:26.339Z,23.08
2022-08-09T02:22:56.933Z,23.09
2022-08-09T02:25:26.609Z,23.09
2022-08-09T02:28:00.122Z,23.09
2022-08-09T02:30:32.749Z,23.08
2022-08-09T02:33:00.177Z,23.09
2022-08-09T02:36:01.251Z,23.09
2022-08-09T02:38:27.866Z,23.08
2022-08-09T02:40:59.729Z,23.08
2022-08-09T02:43:28.695Z,23.09
2022-08-09T02:45:54.780Z,23.08
2022-08-09T02:48:31.166Z,23.08
2022-08-09T02:50:58.950Z,23.08
2022-08-09T02:53:30.824Z,23.08
2022-08-09T02:55:59.011Z,23.08
2022-08-09T02:58:35.498Z,23.09
2022-08-09T03:01:04.438Z,23.09
2022-08-09T03:04:12.744Z,23.08
2022-08-09T03:06:19.643Z,23.08
2022-08-09T03:08:47.877Z,23.09
2022-08-09T03:11:30.132Z,23.09
2022-08-09T03:14:03.705Z,23.09
2022-08-09T03:16:32.046Z,23.09
2022-08-09T03:18:58.755Z,23.08
2022-08-09T03:21:28.006Z,23.08
2022-08-09T03:24:04.770Z,23.08
2022-08-09T03:26:32.067Z,23.08
2022-08-09T03:28:58.488Z,23.08
2022-08-09T03:31:25.200Z,23.08
2022-08-09T03:33:54.532Z,23.08
2022-08-09T03:36:27.087Z,23.08
2022-08-09T03:38:53.681Z,23.08
2022-08-09T03:41:19.584Z,23.08
2022-08-09T03:44:08.181Z,23.08
2022-08-09T03:46:35.305Z,23.09
2022-08-09T03:49:03.914Z,23.08
2022-08-09T03:51:57.171Z,23.08
2022-08-09T03:54:29.702Z,23.08
2022-08-09T03:56:58.020Z,23.09
2022-08-09T03:59:32.956Z,23.08
2022-08-09T04:02:09.782Z,23.08
2022-08-09T04:04:39.034Z,23.08
2022-08-09T04:07:05.077Z,23.08
2022-08-09T04:09:47.883Z,23.08
2022-08-09T04:15:01.350Z,23.07
2022-08-09T04:17:29.514Z,23.09
2022-08-09T04:19:56.028Z,23.08
2022-08-09T04:22:22.010Z,23.07
2022-08-09T04:24:47.632Z,23.08
2022-08-09T04:27:13.261Z,23.09
2022-08-09T04:29:40.349Z,22.95
2022-08-09T04:32:15.841Z,23.06
2022-08-09T04:34:54.003Z,23.08
2022-08-09T04:37:20.128Z,23.08
2022-08-09T04:39:45.877Z,23.10
2022-08-09T04:42:15.779Z,23.10
2022-08-09T04:44:41.596Z,23.11
2022-08-09T04:47:15.110Z,23.11
2022-08-09T04:49:54.317Z,23.11
2022-08-09T04:52:26.231Z,23.11
2022-08-09T04:54:52.832Z,23.12
2022-08-09T04:57:23.810Z,23.13
2022-08-09T04:59:52.054Z,23.12
2022-08-09T05:02:17.862Z,23.12
2022-08-09T05:04:44.313Z,23.12
2022-08-09T05:07:19.292Z,23.12
2022-08-09T05:09:49.495Z,23.14
2022-08-09T05:12:15.654Z,23.13
2022-08-09T05:14:41.805Z,23.13
2022-08-09T05:18:37.469Z,23.12
2022-08-09T05:19:57.039Z,23.12
2022-08-09T05:23:51.091Z,23.14
2022-08-09T05:25:10.376Z,23.14
2022-08-09T05:27:45.447Z,23.16
2022-08-09T05:30:14.776Z,23.17
2022-08-09T05:32:42.048Z,23.15
2022-08-09T05:35:09.369Z,23.15
2022-08-09T05:37:46.429Z,23.16
2022-08-09T05:40:13.315Z,23.15
2022-08-09T05:42:39.045Z,23.18
2022-08-09T05:45:05.432Z,23.18
2022-08-09T05:47:33.233Z,23.16
2022-08-09T05:50:25.731Z,23.18
2022-08-09T05:52:53.670Z,22.94
2022-08-09T05:55:21.343Z,22.73
2022-08-09T05:57:50.814Z,22.66
2022-08-09T06:00:22.072Z,22.66
2022-08-09T06:02:47.918Z,22.65
2022-08-09T06:05:13.609Z,22.62
2022-08-09T06:07:39.262Z,22.57
2022-08-09T06:10:08.612Z,22.43
2022-08-09T06:12:42.234Z,22.36
2022-08-09T06:15:10.229Z,22.39
2022-08-09T06:17:40.492Z,22.41
2022-08-09T06:20:07.043Z,22.47
2022-08-09T06:22:33.686Z,22.41
2022-08-09T06:25:00.159Z,22.42
2022-08-09T06:27:26.330Z,22.41
2022-08-09T06:30:09.874Z,22.41
2022-08-09T06:32:59.952Z,22.40
2022-08-09T06:35:21.338Z,22.37
2022-08-09T06:38:07.114Z,22.40
2022-08-09T06:40:33.430Z,22.43
2022-08-09T06:43:00.305Z,22.43
2022-08-09T06:46:05.083Z,22.43
2022-08-09T06:48:16.591Z,22.40
2022-08-09T06:50:52.561Z,22.43
2022-08-09T06:53:18.785Z,22.45
2022-08-09T06:55:48.380Z,22.34
2022-08-09T07:00:47.568Z,22.48
2022-08-09T07:01:01.661Z,22.66
2022-08-09T07:03:28.748Z,22.69
2022-08-09T07:06:02.962Z,22.70
2022-08-09T07:08:31.352Z,22.67
2022-08-09T07:10:57.002Z,22.69
2022-08-09T07:13:27.957Z,22.69
2022-08-09T07:16:41.532Z,22.69
2022-08-09T07:18:41.061Z,22.69
2022-08-09T07:21:09.066Z,22.70
2022-08-09T07:23:36.110Z,22.68
2022-08-09T07:26:03.289Z,22.67
2022-08-09T07:28:30.191Z,22.66
2022-08-09T07:31:00.537Z,22.66
2022-08-09T07:33:26.550Z,22.66
2022-08-09T07:35:56.594Z,22.66
2022-08-09T07:38:23.163Z,22.65
2022-08-09T07:41:08.050Z,22.68
2022-08-09T07:43:49.546Z,22.70
2022-08-09T07:46:17.278Z,22.71
2022-08-09T07:48:45.554Z,22.73
2022-08-09T07:52:03.626Z,22.74
2022-08-09T07:54:07.407Z,22.91
2022-08-09T07:56:37.086Z,22.96
2022-08-09T07:59:16.046Z,22.92
2022-08-09T08:01:53.087Z,23.01
2022-08-09T08:04:19.288Z,23.04
2022-08-09T08:06:56.203Z,23.06
2022-08-09T08:09:41.098Z,23.07
2022-08-09T08:12:28.448Z,23.07
2022-08-09T08:14:55.479Z,23.07
2022-08-09T08:17:35.565Z,23.08
2022-08-09T08:20:13.233Z,23.02
2022-08-09T08:22:39.437Z,23.09
2022-08-09T08:25:05.653Z,23.10
2022-08-09T08:27:40.617Z,23.11
2022-08-09T08:30:07.687Z,23.10
2022-08-09T08:32:36.981Z,23.11
2022-08-09T08:35:19.451Z,23.12
2022-08-09T08:38:01.853Z,23.12
2022-08-09T08:40:33.657Z,23.12
2022-08-09T08:43:00.589Z,23.13
2022-08-09T08:45:37.049Z,23.12
2022-08-09T08:48:05.206Z,23.10
2022-08-09T08:50:31.055Z,23.15
2022-08-09T08:52:59.026Z,23.17
2022-08-09T08:55:26.375Z,23.18
2022-08-09T08:57:56.851Z,23.19
2022-08-09T09:00:27.936Z,23.19
2022-08-09T09:03:03.023Z,23.20
2022-08-09T09:05:59.925Z,23.19
2022-08-09T09:08:29.694Z,23.22
2022-08-09T09:11:00.500Z,23.22
2022-08-09T09:13:41.736Z,23.22
2022-08-09T09:16:12.429Z,23.21
2022-08-09T09:18:38.077Z,23.21
2022-08-09T09:21:06.332Z,23.20
2022-08-09T09:23:41.497Z,23.24
2022-08-09T09:26:16.287Z,23.26
2022-08-09T09:29:03.420Z,23.27
2022-08-09T09:32:07.103Z,23.25
2022-08-09T09:34:18.480Z,23.25
2022-08-09T09:36:50.940Z,23.26
2022-08-09T09:39:22.063Z,23.27
2022-08-09T09:41:50.939Z,23.26
2022-08-09T09:44:27.609Z,23.27
2022-08-09T09:47:02.926Z,23.28
2022-08-09T09:49:56.018Z,23.23
2022-08-09T09:52:35.975Z,23.19
2022-08-09T09:55:16.629Z,23.18
2022-08-09T09:58:16.808Z,23.15
2022-08-09T10:00:54.568Z,23.15
2022-08-09T10:03:39.653Z,23.15
2022-08-09T10:06:05.662Z,23.12
2022-08-09T10:08:31.618Z,23.10
2022-08-09T10:10:57.709Z,23.11
2022-08-09T10:13:24.713Z,23.15
2022-08-09T10:16:58.119Z,23.19
2022-08-09T10:18:56.326Z,23.19
2022-08-09T10:21:26.417Z,23.19
2022-08-09T10:23:53.118Z,23.18
2022-08-09T10:26:20.893Z,23.18
2022-08-09T10:29:36.060Z,23.18
2022-08-09T10:32:37.512Z,23.22
2022-08-09T10:34:33.726Z,23.23
2022-08-09T10:37:01.772Z,23.23
2022-08-09T10:39:28.926Z,23.24
2022-08-09T10:41:54.871Z,23.24
2022-08-09T10:44:22.946Z,23.21
2022-08-09T10:47:20.565Z,23.29
2022-08-09T10:53:21.122Z,23.31
2022-08-09T10:55:58.684Z,23.31
2022-08-09T10:58:30.153Z,23.32
2022-08-09T11:03:10.994Z,23.29
2022-08-09T11:06:48.037Z,23.29
2022-08-09T11:09:17.509Z,23.29
2022-08-09T11:14:37.904Z,23.34
2022-08-09T11:17:26.245Z,23.33
2022-08-09T11:20:19.872Z,23.33
2022-08-09T11:25:46.098Z,23.32
2022-08-09T11:28:34.027Z,23.14
2022-08-09T11:31:02.452Z,23.09
2022-08-09T11:33:40.359Z,23.09
2022-08-09T11:36:10.036Z,23.06
2022-08-09T11:39:01.060Z,22.98
2022-08-09T11:41:37.824Z,22.99
2022-08-09T11:44:06.752Z,23.04
2022-08-09T11:46:53.017Z,23.10
2022-08-09T11:50:52.448Z,23.11
2022-08-09T11:55:53.865Z,23.13
2022-08-09T12:01:08.802Z,23.19
2022-08-09T12:03:57.216Z,23.09
2022-08-09T12:06:26.775Z,23.00
2022-08-09T12:08:59.772Z,22.87
2022-08-09T12:11:27.289Z,22.89
2022-08-09T12:14:09.024Z,22.82
2022-08-09T12:16:40.778Z,22.89
2022-08-09T12:19:08.296Z,22.86
2022-08-09T12:21:39.064Z,22.98
2022-08-09T12:24:19.540Z,22.99
2022-08-09T12:29:00.251Z,23.01
2022-08-09T12:29:43.900Z,23.07
2022-08-09T12:32:25.089Z,23.12
2022-08-09T12:34:52.440Z,23.09
2022-08-09T12:37:30.128Z,23.08
2022-08-09T12:40:06.424Z,23.04
2022-08-09T12:42:32.796Z,23.07
2022-08-09T12:44:59.320Z,23.12
2022-08-09T12:47:25.880Z,23.09
2022-08-09T12:50:11.651Z,23.09
2022-08-09T12:52:42.918Z,23.10
2022-08-09T12:56:11.763Z,23.10
2022-08-09T12:58:27.558Z,23.12
2022-08-09T13:00:53.953Z,23.18
2022-08-09T13:03:52.641Z,23.21
2022-08-09T13:06:34.820Z,23.22
2022-08-09T13:09:10.456Z,23.22
2022-08-09T13:11:42.329Z,23.24
2022-08-09T13:14:40.853Z,23.24
2022-08-09T13:16:59.843Z,23.24
2022-08-09T13:20:08.554Z,23.26
2022-08-09T13:22:37.161Z,23.27
2022-08-09T13:25:09.822Z,23.27
2022-08-09T13:27:48.758Z,23.28
2022-08-09T13:30:48.794Z,23.29
2022-08-09T13:33:11.677Z,23.29
2022-08-09T13:36:37.388Z,23.33
2022-08-09T13:38:54.614Z,23.31
2022-08-09T13:41:45.743Z,23.33
2022-08-09T13:43:54.678Z,23.33
2022-08-09T13:47:16.227Z,23.33
2022-08-09T13:49:06.283Z,23.32
2022-08-09T13:51:58.819Z,23.33
2022-08-09T13:54:26.941Z,23.32
2022-08-09T13:56:55.896Z,23.34
2022-08-09T13:59:25.369Z,23.34
2022-08-09T14:01:56.469Z,23.32
2022-08-09T14:04:27.995Z,23.33
2022-08-09T14:06:57.068Z,23.34
2022-08-09T14:09:23.164Z,23.35
2022-08-09T14:11:50.065Z,23.36
2022-08-09T14:14:26.233Z,23.35
2022-08-09T14:16:53.756Z,23.35
2022-08-09T14:19:20.568Z,23.36
2022-08-09T14:21:46.276Z,23.37
2022-08-09T14:24:21.949Z,23.37
2022-08-09T14:26:57.491Z,23.38
2022-08-09T14:29:25.464Z,23.38
2022-08-09T14:32:13.023Z,23.38
2022-08-09T14:34:41.176Z,23.38
2022-08-09T14:37:08.117Z,23.38
2022-08-09T14:39:39.951Z,23.38
2022-08-09T14:42:11.815Z,23.39
2022-08-09T14:44:59.146Z,23.38
2022-08-09T14:47:41.193Z,23.38
2022-08-09T14:50:09.650Z,23.39
2022-08-09T14:52:36.709Z,23.39
2022-08-09T14:55:02.719Z,23.39
2022-08-09T14:57:31.992Z,23.38
2022-08-09T15:00:08.916Z,23.38
2022-08-09T15:02:35.857Z,23.39
2022-08-09T15:05:06.707Z,23.39
2022-08-09T15:07:35.102Z,23.38
2022-08-09T15:10:07.336Z,23.38
2022-08-09T15:12:37.045Z,23.38
2022-08-09T15:15:03.387Z,23.39
2022-08-09T15:17:42.521Z,23.39
2022-08-09T15:20:15.250Z,23.38
2022-08-09T15:22:46.731Z,23.38
2022-08-09T15:25:13.260Z,23.38
2022-08-09T15:27:48.057Z,23.38
2022-08-09T15:30:58.206Z,23.40
2022-08-09T15:33:07.447Z,23.40
2022-08-09T15:35:44.577Z,23.40
2022-08-09T15:38:12.121Z,23.41
2022-08-09T15:40:38.070Z,23.41
2022-08-09T15:43:09.626Z,23.40
2022-08-09T15:45:51.981Z,23.38
2022-08-09T15:48:28.429Z,23.37
2022-08-09T15:50:56.807Z,23.37
2022-08-09T15:54:03.905Z,23.38
2022-08-09T15:56:21.585Z,23.38
2022-08-09T15:58:54.489Z,23.37
2022-08-09T16:01:20.199Z,23.37
2022-08-09T16:03:45.882Z,23.37
2022-08-09T16:06:34.779Z,23.37
2022-08-09T16:09:04.747Z,23.38
2022-08-09T16:11:33.182Z,23.38
2022-08-09T16:14:04.155Z,23.37
2022-08-09T16:16:34.753Z,23.37
2022-08-09T16:19:03.793Z,23.36
2022-08-09T16:21:31.444Z,23.36
2022-08-09T16:24:02.603Z,23.36
2022-08-09T16:26:35.683Z,23.37
2022-08-09T16:29:10.372Z,23.36
2022-08-09T16:32:19.294Z,23.37
2022-08-09T16:34:24.229Z,23.36
2022-08-09T16:36:49.860Z,23.36
2022-08-09T16:39:15.531Z,23.37
2022-08-09T16:42:03.703Z,23.36
2022-08-09T16:44:31.633Z,23.35
2022-08-09T16:47:01.850Z,23.36
2022-08-09T16:50:30.140Z,23.36
2022-08-09T16:52:15.757Z,23.36
2022-08-09T16:54:41.698Z,23.37
2022-08-09T16:57:07.781Z,23.36
2022-08-09T16:59:37.430Z,23.36
2022-08-09T17:02:12.822Z,23.35
2022-08-09T17:04:39.628Z,23.36
2022-08-09T17:08:46.675Z,23.36
2022-08-09T17:09:52.324Z,23.35
2022-08-09T17:12:27.713Z,23.35
2022-08-09T17:14:58.351Z,23.34
2022-08-09T17:17:26.157Z,23.35
2022-08-09T17:20:33.004Z,23.34
2022-08-09T17:22:50.387Z,23.36
2022-08-09T17:25:18.327Z,23.37
2022-08-09T17:27:49.243Z,23.35
2022-08-09T17:30:22.242Z,23.35
2022-08-09T17:32:51.756Z,23.35
2022-08-09T17:35:17.405Z,23.34
2022-08-09T17:38:12.084Z,23.35
2022-08-09T17:40:32.721Z,23.35
2022-08-09T17:43:32.429Z,23.35
2022-08-09T17:46:03.230Z,23.33
2022-08-09T17:48:30.925Z,23.35
2022-08-09T17:51:06.495Z,23.35
2022-08-09T17:53:43.074Z,23.36
2022-08-09T17:56:13.431Z,23.34
2022-08-09T17:58:39.068Z,23.35
2022-08-09T18:01:08.674Z,23.34
2022-08-09T18:03:34.385Z,23.34
2022-08-09T18:06:00.709Z,23.33
2022-08-09T18:08:27.736Z,23.34
2022-08-09T18:11:00.819Z,23.34
2022-08-09T18:13:43.175Z,23.35
2022-08-09T18:16:13.908Z,23.34
2022-08-09T18:18:43.246Z,23.35
2022-08-09T18:21:22.870Z,23.33
2022-08-09T18:24:09.976Z,23.34
2022-08-09T18:26:35.136Z,23.34
2022-08-09T18:30:35.737Z,23.34
2022-08-09T18:31:55.761Z,23.32
2022-08-09T18:34:23.936Z,23.34
2022-08-09T18:36:49.998Z,23.33
2022-08-09T18:39:16.815Z,23.33
2022-08-09T18:41:53.151Z,23.33
2022-08-09T18:44:22.894Z,23.32
2022-08-09T18:47:05.100Z,23.33
2022-08-09T18:49:43.252Z,23.33
2022-08-09T18:52:13.304Z,23.32
2022-08-09T18:54:39.263Z,23.34
2022-08-09T18:57:11.482Z,23.33
2022-08-09T18:59:48.869Z,23.33
2022-08-09T19:02:15.967Z,23.33
2022-08-09T19:04:41.623Z,23.32
2022-08-09T19:07:13.645Z,23.32
2022-08-09T19:10:17.041Z,23.33
2022-08-09T19:12:29.792Z,23.32
2022-08-09T19:14:55.638Z,23.31
2022-08-09T19:17:22.369Z,23.32
2022-08-09T19:19:47.993Z,23.32
2022-08-09T19:22:15.119Z,23.32
2022-08-09T19:25:09.797Z,23.32
2022-08-09T19:27:28.641Z,23.31
2022-08-09T19:30:25.060Z,23.32
2022-08-09T19:32:40.477Z,23.32
2022-08-09T19:35:06.873Z,23.32
2022-08-09T19:37:33.258Z,23.31
2022-08-09T19:40:19.449Z,23.30
2022-08-09T19:42:47.293Z,23.30
2022-08-09T19:45:15.322Z,23.31
2022-08-09T19:47:41.217Z,23.31
2022-08-09T19:50:48.986Z,23.30
2022-08-09T19:52:52.692Z,23.31
2022-08-09T19:55:25.621Z,23.29
2022-08-09T19:57:56.586Z,23.31
2022-08-09T20:00:22.374Z,23.31
2022-08-09T20:04:11.550Z,23.31
2022-08-09T20:05:46.382Z,23.31
2022-08-09T20:08:33.400Z,23.30
2022-08-09T20:11:04.004Z,23.31
2022-08-09T20:13:30.296Z,23.30
2022-08-09T20:16:33.143Z,23.30
2022-08-09T20:18:52.011Z,23.31
2022-08-09T20:21:30.003Z,23.31
2022-08-09T20:24:15.508Z,23.29
2022-08-09T20:26:55.132Z,23.31
2022-08-09T20:29:22.809Z,23.30
2022-08-09T20:31:51.441Z,23.30
2022-08-09T20:34:35.163Z,23.31
2022-08-09T20:37:00.788Z,23.30
2022-08-09T20:40:16.441Z,23.31
2022-08-09T20:42:15.080Z,23.29
2022-08-09T20:45:00.381Z,23.30
2022-08-09T20:47:47.876Z,23.29
2022-08-09T20:50:15.561Z,23.30
2022-08-09T20:53:00.012Z,23.29
2022-08-09T20:55:27.320Z,23.30
2022-08-09T20:58:08.471Z,23.29
2022-08-09T21:00:45.147Z,23.28
2022-08-09T21:03:16.828Z,23.29
2022-08-09T21:05:54.870Z,23.29
2022-08-09T21:08:36.591Z,23.29
2022-08-09T21:11:02.775Z,23.31
2022-08-09T21:13:57.788Z,23.29
2022-08-09T21:16:19.022Z,23.28
2022-08-09T21:20:05.364Z,23.29
2022-08-09T21:21:46.100Z,23.29
2022-08-09T21:24:19.358Z,23.29
2022-08-09T21:26:54.390Z,23.29
2022-08-09T21:29:22.762Z,23.28
2022-08-09T21:31:49.881Z,23.29
2022-08-09T21:34:28.744Z,23.28
2022-08-09T21:36:56.421Z,23.30
2022-08-09T21:39:22.310Z,23.28
2022-08-09T21:42:05.178Z,23.28
2022-08-09T21:44:35.919Z,23.29
2022-08-09T21:47:05.278Z,23.28
2022-08-09T21:49:40.586Z,23.30
2022-08-09T21:52:14.883Z,23.29
2022-08-09T21:54:46.242Z,23.29
2022-08-09T21:57:37.290Z,23.28
2022-08-09T21:59:57.707Z,23.28
2022-08-09T22:02:29.636Z,23.28
2022-08-09T22:05:16.393Z,23.28
2022-08-09T22:07:53.000Z,23.28
2022-08-09T22:10:23.264Z,23.29
2022-08-09T22:12:50.877Z,23.29
2022-08-09T22:15:18.009Z,23.28
2022-08-09T22:17:47.170Z,23.27
2022-08-09T22:20:17.037Z,23.28
2022-08-09T22:22:48.585Z,23.28
2022-08-09T22:26:07.936Z,23.28
2022-08-09T22:27:59.985Z,23.28
2022-08-09T22:30:33.418Z,23.28
2022-08-09T22:32:59.223Z,23.27
2022-08-09T22:36:02.396Z,23.28
2022-08-09T22:38:10.496Z,23.28
2022-08-09T22:40:40.641Z,23.28
2022-08-09T22:43:16.869Z,23.27
2022-08-09T22:48:10.694Z,23.28
2022-08-09T22:48:50.679Z,23.27
2022-08-09T22:51:23.656Z,23.27
2022-08-09T22:54:02.372Z,23.29
2022-08-09T22:56:33.071Z,23.28
2022-08-09T22:59:00.674Z,23.27
2022-08-09T23:01:26.391Z,23.28
2022-08-09T23:04:03.743Z,23.28
2022-08-09T23:06:51.862Z,23.28
2022-08-09T23:09:17.555Z,23.27
2022-08-09T23:11:43.195Z,23.27
2022-08-09T23:14:10.040Z,23.27
2022-08-09T23:16:43.230Z,23.28
2022-08-09T23:19:08.853Z,23.27
2022-08-09T23:21:34.522Z,23.27
2022-08-09T23:24:05.957Z,23.27
2022-08-09T23:26:33.858Z,23.27
2022-08-09T23:28:59.495Z,23.26
2022-08-09T23:31:25.157Z,23.27
2022-08-09T23:33:50.778Z,23.26
2022-08-09T23:36:16.393Z,23.28
2022-08-09T23:38:48.361Z,23.27
2022-08-09T23:41:28.583Z,23.27
2022-08-09T23:43:57.133Z,23.28
2022-08-09T23:46:22.756Z,23.27
2022-08-09T23:48:48.382Z,23.27
2022-08-09T23:51:14.071Z,23.27
2022-08-09T23:53:39.703Z,23.28
2022-08-09T23:56:05.595Z,23.26
2022-08-09T23:58:32.645Z,23.27
